Time;durP1;ratioP1;P1;durP2;ratioP2;P2;SDS_P1;SDS_P2;PMS_P1;PMS_P2;Temp;Humidity;BMP_temperature;BMP_pressure;BME280_temperature;BME280_humidity;BME280_pressure;Samples;Min_cycle;Max_cycle;Signal;HPM_P1;HPM_P2
2022/10/16 00:01:17;;;;;;;13.63;2.58;;;;;;;11.66;93.42;101004.56;6193365;23;20052;-75
2022/10/16 00:03:45;;;;;;;5.07;1.85;;;;;;;11.67;93.26;100991.97;6220055;23;20040;-75
2022/10/16 00:06:13;;;;;;;2.38;1.95;;;;;;;11.67;92.89;100999.97;6219757;23;20403;-75
2022/10/16 00:08:40;;;;;;;5.43;2.33;;;;;;;11.65;93.42;100997.00;6218986;23;20067;-75
2022/10/16 00:11:19;;;;;;;3.00;1.80;;;;;;;11.63;93.20;100999.38;6219683;23;20013;-75
2022/10/16 00:13:47;;;;;;;2.05;1.85;;;;;;;11.62;93.44;101003.22;6219825;23;20068;-75
2022/10/16 00:16:14;;;;;;;3.92;1.88;;;;;;;11.60;93.51;101001.00;6219496;23;20085;-74
2022/10/16 00:18:41;;;;;;;7.18;2.15;;;;;;;11.59;93.39;101007.53;6219976;23;20052;-74
2022/10/16 00:21:14;;;;;;;2.78;1.63;;;;;;;11.57;93.82;101003.81;6219523;23;20025;-75
2022/10/16 00:23:41;;;;;;;4.70;2.00;;;;;;;11.57;94.49;101007.22;6192471;23;20014;-75
2022/10/16 00:26:12;;;;;;;5.40;2.10;;;;;;;11.57;94.16;101011.81;6219428;23;20507;-75
2022/10/16 00:28:39;;;;;;;4.60;2.38;;;;;;;11.58;94.34;101005.31;6219832;23;20020;-75
2022/10/16 00:31:08;;;;;;;3.83;2.17;;;;;;;11.58;94.16;101016.72;6219473;23;20009;-75
2022/10/16 00:33:35;;;;;;;2.92;2.40;;;;;;;11.59;94.31;101012.88;6219669;23;20017;-75
2022/10/16 00:36:03;;;;;;;3.05;2.33;;;;;;;11.60;94.14;101013.59;6219366;23;20458;-75
2022/10/16 00:38:30;;;;;;;4.20;2.10;;;;;;;11.61;95.05;100994.47;6219076;23;20457;-75
2022/10/16 00:40:57;;;;;;;6.45;2.20;;;;;;;11.62;94.61;100997.88;6219340;23;20469;-75
2022/10/16 00:43:52;;;;;;;4.93;2.28;;;;;;;11.63;94.01;101000.13;6219378;23;20411;-74
2022/10/16 00:46:29;;;;;;;7.43;2.30;;;;;;;11.68;94.12;100993.47;6219728;23;20080;-75
2022/10/16 00:48:59;;;;;;;8.27;2.55;;;;;;;11.70;94.22;100994.50;6219371;23;20053;-74
2022/10/16 00:51:31;;;;;;;3.33;2.28;;;;;;;11.70;94.49;101005.19;6220262;23;20072;-75
2022/10/16 00:53:58;;;;;;;4.65;2.67;;;;;;;11.72;94.24;101001.34;6220123;23;20013;-74
2022/10/16 00:56:25;;;;;;;6.60;2.63;;;;;;;11.74;94.13;100997.03;6221143;23;20097;-74
2022/10/16 00:58:52;;;;;;;3.50;3.10;;;;;;;11.78;94.10;101003.00;6220724;23;20084;-75
2022/10/16 01:01:19;;;;;;;3.35;2.83;;;;;;;11.82;94.24;101002.88;6221032;23;20013;-74
2022/10/16 01:03:45;;;;;;;7.25;3.13;;;;;;;11.81;94.27;101010.13;6221028;23;20025;-75
2022/10/16 01:06:37;;;;;;;4.18;3.35;;;;;;;11.83;94.22;101010.44;6220743;23;20521;-75
2022/10/16 01:09:34;;;;;;;8.32;3.28;;;;;;;11.84;94.45;101003.91;6220856;23;20017;-75
2022/10/16 01:12:06;;;;;;;5.93;4.18;;;;;;;11.85;94.26;101008.06;6220920;23;20088;-75
2022/10/16 01:14:45;;;;;;;6.43;3.45;;;;;;;11.88;94.58;101014.47;6221030;23;20403;-75
2022/10/16 01:17:16;;;;;;;5.78;3.72;;;;;;;11.90;94.83;101018.16;6220779;23;20096;-75
2022/10/16 01:19:54;;;;;;;5.43;3.93;;;;;;;11.93;94.54;101013.88;6221138;23;20439;-75
2022/10/16 01:22:24;;;;;;;10.32;4.40;;;;;;;11.93;94.89;101011.94;6220506;23;20017;-75
2022/10/16 01:24:55;;;;;;;7.72;4.00;;;;;;;11.95;94.53;101003.50;6220243;23;20108;-75
2022/10/16 01:27:27;;;;;;;6.88;4.57;;;;;;;11.98;94.41;100997.28;6220987;23;20021;-75
2022/10/16 01:30:09;;;;;;;8.05;4.40;;;;;;;11.99;95.02;101007.53;6218661;23;20017;-74
2022/10/16 01:32:52;;;;;;;5.82;4.45;;;;;;;12.00;95.00;101011.66;6192093;23;20017;-75
2022/10/16 01:35:41;;;;;;;6.90;4.35;;;;;;;12.02;94.90;101016.53;6220411;23;20040;-75
2022/10/16 01:38:30;;;;;;;7.05;4.18;;;;;;;12.01;95.13;101007.78;6219977;23;20036;-74
2022/10/16 01:41:03;;;;;;;7.90;4.38;;;;;;;12.03;94.57;101004.69;6220552;23;20020;-75
2022/10/16 01:43:58;;;;;;;8.50;4.32;;;;;;;12.05;95.39;101014.91;6220455;23;20037;-75
2022/10/16 01:46:26;;;;;;;6.38;4.00;;;;;;;12.03;94.76;101004.69;6203115;23;20040;-75
2022/10/16 01:48:53;;;;;;;5.15;4.05;;;;;;;12.02;95.25;101011.94;6220315;23;20434;-75
2022/10/16 01:51:21;;;;;;;8.23;4.65;;;;;;;12.05;95.12;101001.56;6220245;23;20021;-75
2022/10/16 01:53:54;;;;;;;4.85;4.28;;;;;;;12.04;95.37;100998.16;6220740;23;20013;-75
2022/10/16 01:56:22;;;;;;;4.47;4.03;;;;;;;12.03;95.14;101007.34;6220789;23;20096;-75
2022/10/16 01:59:06;;;;;;;6.50;3.95;;;;;;;12.05;95.48;101002.31;6220692;23;20017;-75
2022/10/16 02:01:36;;;;;;;6.88;3.90;;;;;;;12.06;95.37;100995.78;6220864;23;20037;-75
2022/10/16 02:04:19;;;;;;;5.32;3.40;;;;;;;12.05;95.78;101002.31;6219646;23;20037;-75
2022/10/16 02:06:45;;;;;;;4.00;3.38;;;;;;;12.06;95.62;100992.38;6220293;23;20073;-75
2022/10/16 02:09:12;;;;;;;3.83;3.25;;;;;;;12.06;95.80;100995.78;6220282;23;20104;-75
2022/10/16 02:11:38;;;;;;;3.70;2.78;;;;;;;12.07;95.73;100996.53;6220699;23;20017;-75
2022/10/16 02:14:06;;;;;;;5.20;3.25;;;;;;;12.08;95.75;101003.34;6220399;23;20096;-75
2022/10/16 02:16:41;;;;;;;4.25;3.47;;;;;;;12.10;95.82;101006.31;6220884;23;20519;-75
2022/10/16 02:19:13;;;;;;;5.30;2.72;;;;;;;12.10;95.63;101001.72;6219864;23;20080;-75
2022/10/16 02:21:51;;;;;;;6.70;3.10;;;;;;;12.11;95.31;101002.47;6220336;23;20095;-74
2022/10/16 02:24:53;;;;;;;4.72;3.00;;;;;;;12.12;95.31;101010.03;6220979;23;20435;-74
2022/10/16 02:27:29;;;;;;;3.78;2.90;;;;;;;12.14;95.05;101015.69;6154083;23;20101;-74
2022/10/16 02:30:14;;;;;;;3.20;3.00;;;;;;;12.13;95.26;101016.13;6220310;23;20031;-74
2022/10/16 02:32:44;;;;;;;5.68;2.88;;;;;;;12.11;95.45;101018.50;6221040;23;20072;-74
2022/10/16 02:35:12;;;;;;;4.75;3.03;;;;;;;12.08;95.59;101009.44;6219769;23;20431;-74
2022/10/16 02:37:40;;;;;;;7.22;3.10;;;;;;;12.07;95.64;101009.88;6220391;23;20013;-74
2022/10/16 02:40:08;;;;;;;3.85;2.75;;;;;;;12.05;96.09;101009.59;6168472;23;20059;-74
2022/10/16 02:42:39;;;;;;;7.95;2.97;;;;;;;12.02;95.97;101014.63;6220259;23;20048;-74
2022/10/16 02:45:08;;;;;;;3.17;2.80;;;;;;;12.01;96.29;101023.06;6220297;23;20044;-75
2022/10/16 02:47:34;;;;;;;3.72;2.92;;;;;;;12.00;96.59;101016.25;6220570;23;20029;-75
2022/10/16 02:50:01;;;;;;;4.65;3.05;;;;;;;11.96;96.43;101021.00;6219410;23;20455;-74
2022/10/16 02:52:27;;;;;;;4.80;3.17;;;;;;;11.95;96.60;101022.94;6220593;23;20013;-74
2022/10/16 02:54:54;;;;;;;3.38;2.88;;;;;;;11.93;96.65;101024.53;6220223;23;20088;-74
2022/10/16 02:57:22;;;;;;;3.75;3.17;;;;;;;11.91;97.26;101022.31;6220579;23;20017;-74
2022/10/16 02:59:49;;;;;;;2.85;2.65;;;;;;;11.89;97.23;101026.59;6220232;23;20430;-74
2022/10/16 03:02:15;;;;;;;3.45;3.10;;;;;;;11.87;97.66;101026.31;6193798;23;20036;-75
2022/10/16 03:04:42;;;;;;;6.00;3.03;;;;;;;11.88;97.74;101030.47;6219788;23;20080;-74
2022/10/16 03:07:08;;;;;;;4.55;2.95;;;;;;;11.91;97.64;101035.66;6219893;23;20032;-74
2022/10/16 03:09:35;;;;;;;3.50;3.20;;;;;;;11.92;98.15;101023.06;6220473;23;20104;-74
2022/10/16 03:12:01;;;;;;;3.67;3.17;;;;;;;11.92;97.71;101020.41;6219972;23;20486;-74
2022/10/16 03:14:28;;;;;;;3.70;3.13;;;;;;;11.95;97.50;101019.50;6220411;23;20125;-74
2022/10/16 03:16:54;;;;;;;4.43;3.30;;;;;;;11.94;97.94;101018.03;6219911;23;20071;-74
2022/10/16 03:19:21;;;;;;;4.75;3.03;;;;;;;11.92;97.98;101015.81;6219939;23;20018;-74
2022/10/16 03:21:47;;;;;;;4.50;2.95;;;;;;;11.92;97.86;101017.72;6220494;23;20096;-74
2022/10/16 03:24:14;;;;;;;9.95;2.92;;;;;;;11.90;98.11;101020.09;6219965;23;20017;-74
2022/10/16 03:26:40;;;;;;;3.75;3.08;;;;;;;11.88;98.22;101033.13;6220332;23;20048;-74
2022/10/16 03:29:07;;;;;;;2.70;2.53;;;;;;;11.85;98.45;101023.34;6219901;23;20104;-74
2022/10/16 03:31:33;;;;;;;3.20;2.90;;;;;;;11.82;98.17;101024.97;6220304;23;20570;-74
2022/10/16 03:34:00;;;;;;;2.95;2.67;;;;;;;11.80;98.55;101024.66;6219549;23;20044;-74
2022/10/16 03:36:26;;;;;;;6.63;2.90;;;;;;;11.79;98.72;101036.50;6220259;23;20106;-74
2022/10/16 03:38:53;;;;;;;3.78;2.53;;;;;;;11.79;98.58;101035.75;6219973;23;20071;-74
2022/10/16 03:41:19;;;;;;;4.25;2.70;;;;;;;11.79;98.89;101041.84;6220373;23;20096;-74
2022/10/16 03:43:46;;;;;;;3.78;2.70;;;;;;;11.79;99.24;101041.09;6220008;23;20041;-74
2022/10/16 03:46:12;;;;;;;3.17;2.65;;;;;;;11.76;98.95;101042.69;6219062;23;20044;-74
2022/10/16 03:48:39;;;;;;;4.35;3.35;;;;;;;11.74;99.28;101044.31;6220247;23;20089;-74
2022/10/16 03:51:06;;;;;;;8.93;3.35;;;;;;;11.72;99.26;101042.06;6219611;23;20088;-74
2022/10/16 03:53:32;;;;;;;6.72;2.88;;;;;;;11.70;98.86;101039.84;6220231;23;20017;-74
2022/10/16 03:55:59;;;;;;;3.22;2.92;;;;;;;11.66;99.34;101044.56;6219719;23;20013;-74
2022/10/16 03:58:25;;;;;;;6.10;2.75;;;;;;;11.65;99.25;101047.69;6220081;23;20103;-74
2022/10/16 04:00:52;;;;;;;3.03;2.83;;;;;;;11.63;99.53;101050.78;6219046;23;20081;-74
2022/10/16 04:03:18;;;;;;;3.60;2.90;;;;;;;11.64;99.43;101054.19;6220158;23;20013;-74
2022/10/16 04:05:45;;;;;;;3.22;2.92;;;;;;;11.63;99.63;101056.13;6219853;23;20017;-74
2022/10/16 04:08:11;;;;;;;8.73;3.00;;;;;;;11.61;99.67;101058.47;6219660;23;20177;-74
2022/10/16 04:10:38;;;;;;;2.63;2.42;;;;;;;11.61;99.75;101063.81;6193028;23;20068;-74
2022/10/16 04:13:04;;;;;;;8.15;3.08;;;;;;;11.59;99.75;101071.53;6219637;23;20013;-73
2022/10/16 04:15:30;;;;;;;4.90;2.72;;;;;;;11.57;99.77;101062.47;6219328;23;20024;-74
2022/10/16 04:17:57;;;;;;;3.63;2.80;;;;;;;11.54;100.00;101069.44;6219690;23;20017;-74
2022/10/16 04:20:23;;;;;;;2.70;2.50;;;;;;;11.55;99.94;101076.25;6219913;23;20124;-74
2022/10/16 04:22:50;;;;;;;2.88;2.63;;;;;;;11.54;100.00;101080.09;6219473;23;20033;-74
2022/10/16 04:25:16;;;;;;;4.15;2.28;;;;;;;11.54;100.00;101090.03;6219708;23;20043;-74
2022/10/16 04:27:43;;;;;;;3.30;2.10;;;;;;;11.53;100.00;101080.53;6220794;23;20017;-74
2022/10/16 04:30:12;;;;;;;5.20;2.50;;;;;;;11.52;100.00;101084.38;6220039;23;20017;-74
2022/10/16 04:32:39;;;;;;;4.28;2.30;;;;;;;11.51;100.00;101085.56;6221199;23;20032;-74
2022/10/16 04:35:07;;;;;;;2.40;2.20;;;;;;;11.49;100.00;101086.00;6220669;23;20033;-74
2022/10/16 04:37:33;;;;;;;2.85;2.40;;;;;;;11.51;100.00;101086.31;6221162;23;20097;-74
2022/10/16 04:40:00;;;;;;;2.42;2.13;;;;;;;11.50;100.00;101092.06;6220641;23;20454;-74
2022/10/16 04:42:26;;;;;;;2.30;2.13;;;;;;;11.50;100.00;101100.81;6220609;23;20013;-74
2022/10/16 04:44:52;;;;;;;4.05;2.20;;;;;;;11.52;100.00;101100.38;6219730;23;20097;-74
2022/10/16 04:47:19;;;;;;;3.13;2.22;;;;;;;11.50;100.00;101100.81;6220872;23;20024;-74
2022/10/16 04:49:45;;;;;;;3.42;2.00;;;;;;;11.52;100.00;101119.03;6220767;23;20495;-74
2022/10/16 04:52:12;;;;;;;5.57;2.33;;;;;;;11.51;100.00;101110.28;6220404;23;20093;-74
2022/10/16 04:54:38;;;;;;;2.63;1.90;;;;;;;11.51;100.00;101120.22;6221082;23;20040;-76
2022/10/16 04:57:05;;;;;;;3.60;2.00;;;;;;;11.53;100.00;101109.84;6220503;23;20056;-74
2022/10/16 04:59:31;;;;;;;2.22;2.13;;;;;;;11.53;100.00;101115.19;6220529;23;20071;-74
2022/10/16 05:01:57;;;;;;;4.32;1.77;;;;;;;11.53;100.00;101128.53;6220616;23;20024;-74
2022/10/16 05:04:24;;;;;;;5.07;1.73;;;;;;;11.52;100.00;101125.13;6221096;23;20017;-74
2022/10/16 05:06:50;;;;;;;2.80;1.80;;;;;;;11.54;100.00;101132.69;6220529;23;20041;-74
2022/10/16 05:09:17;;;;;;;3.15;2.25;;;;;;;11.50;100.00;101126.72;6220860;23;20017;-74
2022/10/16 05:11:43;;;;;;;4.25;1.98;;;;;;;11.49;100.00;101133.97;6221023;23;20064;-74
2022/10/16 05:14:10;;;;;;;7.05;2.20;;;;;;;11.45;100.00;101133.34;6219939;23;20013;-74
2022/10/16 05:16:41;;;;;;;2.13;2.00;;;;;;;11.44;100.00;101139.88;6220994;23;20450;-74
2022/10/16 05:19:08;;;;;;;2.17;2.08;;;;;;;11.42;100.00;101152.88;6220550;23;20084;-74
2022/10/16 05:21:53;;;;;;;1.90;1.80;;;;;;;11.39;100.00;101148.41;6220592;23;20013;-74
2022/10/16 05:24:19;;;;;;;1.85;1.75;;;;;;;11.35;100.00;101150.47;6193803;23;20045;-74
2022/10/16 05:26:46;;;;;;;5.45;2.47;;;;;;;11.33;100.00;101158.91;6220892;23;20045;-74
2022/10/16 05:29:12;;;;;;;5.55;1.98;;;;;;;11.32;100.00;101162.00;6219949;23;20013;-75
2022/10/16 05:31:39;;;;;;;4.13;1.90;;;;;;;11.31;100.00;101158.59;6220898;23;20080;-74
2022/10/16 05:34:05;;;;;;;4.57;2.10;;;;;;;11.30;100.00;101165.09;6220459;23;20100;-74
2022/10/16 05:36:32;;;;;;;2.40;2.20;;;;;;;11.30;100.00;101167.75;6220867;23;20426;-74
2022/10/16 05:38:58;;;;;;;2.95;1.88;;;;;;;11.30;100.00;101181.09;6219713;23;20056;-74
2022/10/16 05:41:26;;;;;;;2.25;2.13;;;;;;;11.31;100.00;101190.56;6220694;23;20045;-73
2022/10/16 05:43:53;;;;;;;2.35;1.85;;;;;;;11.31;100.00;101184.50;6219505;23;20041;-74
2022/10/16 05:46:19;;;;;;;4.25;2.00;;;;;;;11.30;100.00;101188.34;6220891;23;20021;-73
2022/10/16 05:48:46;;;;;;;4.38;1.95;;;;;;;11.32;100.00;101194.72;6221229;23;20092;-74
2022/10/16 05:51:14;;;;;;;5.05;2.05;;;;;;;11.34;100.00;101199.63;6220404;23;20023;-74
2022/10/16 05:53:40;;;;;;;2.13;2.03;;;;;;;11.33;100.00;101196.22;6220545;23;20047;-74
2022/10/16 05:56:10;;;;;;;2.10;1.92;;;;;;;11.36;100.00;101216.66;6220375;23;20099;-74
2022/10/16 05:58:37;;;;;;;2.55;2.28;;;;;;;11.38;100.00;101215.50;6220234;23;20017;-74
2022/10/16 06:01:06;;;;;;;2.15;1.95;;;;;;;11.40;100.00;101218.47;6220383;23;20041;-74
2022/10/16 06:03:34;;;;;;;3.25;1.92;;;;;;;11.40;100.00;101216.56;6220658;23;20048;-74
2022/10/16 06:06:08;;;;;;;2.38;2.17;;;;;;;11.43;100.00;101223.69;6220109;23;20079;-74
2022/10/16 06:08:38;;;;;;;2.70;2.00;;;;;;;11.45;100.00;101224.00;6220744;23;20013;-74
2022/10/16 06:11:07;;;;;;;4.90;2.67;;;;;;;11.45;100.00;101224.00;6220480;23;20071;-74
2022/10/16 06:13:34;;;;;;;4.38;2.28;;;;;;;11.46;100.00;101225.50;6221444;23;20076;-79
2022/10/16 06:16:01;;;;;;;3.22;1.80;;;;;;;11.49;100.00;101227.28;6194198;23;20113;-78
2022/10/16 06:18:29;;;;;;;2.30;2.10;;;;;;;11.51;100.00;101232.19;6221200;23;20044;-79
2022/10/16 06:20:56;;;;;;;3.78;1.75;;;;;;;11.54;100.00;101242.00;6221294;23;20100;-79
2022/10/16 06:23:23;;;;;;;2.20;2.00;;;;;;;11.58;100.00;101243.34;6220966;23;20095;-79
2022/10/16 06:25:49;;;;;;;2.10;1.90;;;;;;;11.62;100.00;101256.53;6193702;23;20086;-80
2022/10/16 06:28:16;;;;;;;2.53;2.10;;;;;;;11.64;100.00;101256.84;6221398;23;20439;-80
2022/10/16 06:30:45;;;;;;;2.20;2.10;;;;;;;11.67;100.00;101256.75;6221278;23;20045;-80
2022/10/16 06:33:12;;;;;;;3.13;1.90;;;;;;;11.73;100.00;101261.53;6221424;23;20013;-79
2022/10/16 06:35:38;;;;;;;2.30;2.08;;;;;;;11.77;100.00;101257.56;6221407;23;20044;-84
2022/10/16 06:38:05;;;;;;;5.38;2.35;;;;;;;11.76;100.00;101255.31;6221465;23;20096;-84
2022/10/16 06:40:31;;;;;;;6.00;2.67;;;;;;;11.75;100.00;101262.56;6219795;23;20115;-76
2022/10/16 06:42:58;;;;;;;4.57;2.33;;;;;;;11.72;100.00;101266.09;6220617;23;20089;-76
2022/10/16 06:45:25;;;;;;;2.90;2.22;;;;;;;11.73;100.00;101274.84;6220999;23;20402;-77
2022/10/16 06:47:52;;;;;;;2.47;2.05;;;;;;;11.73;100.00;101277.53;6221418;23;20509;-77
2022/10/16 06:50:18;;;;;;;6.30;2.30;;;;;;;11.73;100.00;101288.94;6220804;23;20097;-76
2022/10/16 06:52:44;;;;;;;5.38;2.28;;;;;;;11.75;100.00;101283.91;6221104;23;20044;-76
2022/10/16 06:55:11;;;;;;;3.03;2.47;;;;;;;11.77;100.00;101294.19;6194098;23;20025;-76
2022/10/16 06:57:37;;;;;;;6.57;2.20;;;;;;;11.78;100.00;101301.00;6221250;23;20092;-77
2022/10/16 07:00:05;;;;;;;2.58;2.10;;;;;;;11.80;100.00;101298.66;6194328;23;20088;-77
2022/10/16 07:02:31;;;;;;;4.35;2.40;;;;;;;11.81;100.00;101295.53;6221136;23;20032;-77
2022/10/16 07:04:57;;;;;;;2.38;2.17;;;;;;;11.83;100.00;101293.19;6221532;23;20052;-77
2022/10/16 07:07:26;;;;;;;2.33;2.13;;;;;;;11.86;100.00;101281.66;6221298;23;20092;-76
2022/10/16 07:09:52;;;;;;;2.42;2.22;;;;;;;11.89;100.00;101286.13;6220461;23;20013;-76
2022/10/16 07:12:19;;;;;;;2.53;2.20;;;;;;;11.95;100.00;101291.66;6221215;23;20152;-76
2022/10/16 07:14:45;;;;;;;4.13;2.38;;;;;;;11.99;100.00;101300.28;6221084;23;20024;-76
2022/10/16 07:17:12;;;;;;;4.25;2.25;;;;;;;12.02;100.00;101304.72;6220987;23;20095;-76
2022/10/16 07:19:38;;;;;;;3.10;2.00;;;;;;;12.05;100.00;101300.44;6221303;23;20043;-76
2022/10/16 07:22:05;;;;;;;5.57;2.05;;;;;;;12.07;100.00;101308.75;6221260;23;20020;-76
2022/10/16 07:24:31;;;;;;;10.05;1.90;;;;;;;12.08;99.53;101324.31;6193902;23;20088;-78
2022/10/16 07:26:57;;;;;;;2.78;2.00;;;;;;;12.11;100.00;101320.03;6218467;23;20100;-77
2022/10/16 07:29:24;;;;;;;5.63;2.40;;;;;;;12.12;99.87;101329.53;6220121;23;20037;-77
2022/10/16 07:31:50;;;;;;;5.28;2.17;;;;;;;12.15;99.63;101329.41;6219905;23;20399;-77
2022/10/16 07:34:19;;;;;;;3.03;2.00;;;;;;;12.18;99.21;101335.81;6220397;23;20021;-77
2022/10/16 07:36:48;;;;;;;2.25;1.70;;;;;;;12.21;98.63;101346.38;6219852;23;20040;-77
2022/10/16 07:39:14;;;;;;;3.90;1.67;;;;;;;12.27;98.22;101349.97;6219329;23;20021;-78
2022/10/16 07:41:41;;;;;;;2.83;1.80;;;;;;;12.30;98.24;101348.34;6219916;23;20084;-77
2022/10/16 07:44:08;;;;;;;2.78;1.60;;;;;;;12.32;98.24;101357.41;6219109;23;20036;-77
2022/10/16 07:46:35;;;;;;;4.00;2.17;;;;;;;12.34;97.83;101356.97;6219941;23;20084;-77
2022/10/16 07:49:03;;;;;;;1.70;1.60;;;;;;;12.35;98.09;101369.16;6193273;23;20479;-76
2022/10/16 07:51:29;;;;;;;6.32;2.13;;;;;;;12.36;97.94;101378.66;6219786;23;20021;-76
2022/10/16 07:53:56;;;;;;;2.78;1.73;;;;;;;12.38;98.53;101378.22;6218999;23;20021;-76
2022/10/16 07:56:22;;;;;;;6.35;2.10;;;;;;;12.45;98.55;101393.94;6219757;23;20013;-76
2022/10/16 07:58:50;;;;;;;2.00;1.80;;;;;;;12.58;98.28;101392.72;6219925;23;20071;-76
2022/10/16 08:01:17;;;;;;;3.75;2.30;;;;;;;12.77;97.93;101406.16;6220274;23;20510;-77
2022/10/16 08:03:46;;;;;;;5.57;2.00;;;;;;;12.95;97.65;101395.53;6221182;23;20017;-76
2022/10/16 08:06:13;;;;;;;1.92;1.70;;;;;;;12.99;97.22;101401.50;6220572;23;20096;-76
2022/10/16 08:08:39;;;;;;;3.67;2.33;;;;;;;13.06;96.16;101398.56;6220521;23;20401;-76
2022/10/16 08:11:06;;;;;;;3.97;2.33;;;;;;;13.21;95.28;101401.44;6220248;23;20013;-77
2022/10/16 08:13:32;;;;;;;4.57;2.00;;;;;;;13.28;94.79;101407.28;6221141;23;20045;-75
2022/10/16 08:15:59;;;;;;;3.38;2.30;;;;;;;13.34;94.59;101397.47;6220668;23;20218;-76
2022/10/16 08:18:26;;;;;;;3.65;2.25;;;;;;;13.52;94.33;101410.16;6221267;23;20421;-75
2022/10/16 08:20:57;;;;;;;5.40;2.22;;;;;;;13.50;93.26;101420.56;6220758;23;20055;-78
2022/10/16 08:23:25;;;;;;;2.35;2.15;;;;;;;13.46;93.37;101409.25;6220372;23;20478;-78
2022/10/16 08:25:53;;;;;;;5.38;2.50;;;;;;;13.63;93.22;101429.19;6220271;23;20020;-77
2022/10/16 08:28:20;;;;;;;4.03;2.10;;;;;;;13.81;92.31;101425.06;6220715;23;20405;-75
2022/10/16 08:30:47;;;;;;;3.63;2.10;;;;;;;13.88;92.28;101427.44;6193474;23;20017;-78
2022/10/16 08:33:14;;;;;;;9.20;2.05;;;;;;;13.92;91.65;101422.69;6220773;23;20024;-77
2022/10/16 08:35:40;;;;;;;6.50;1.90;;;;;;;13.99;90.89;101443.81;6221187;23;20431;-77
2022/10/16 08:38:07;;;;;;;2.00;1.80;;;;;;;14.09;90.74;101439.94;6193680;23;20096;-77
2022/10/16 08:40:36;;;;;;;7.30;2.00;;;;;;;14.20;89.99;101437.56;6220535;23;20048;-76
2022/10/16 08:43:12;;;;;;;4.35;2.75;;;;;;;14.29;89.34;101442.16;6219946;23;20056;-77
2022/10/16 08:45:51;;;;;;;4.78;1.98;;;;;;;14.26;89.15;101453.78;6220935;23;20037;-77
2022/10/16 08:48:33;;;;;;;4.63;2.30;;;;;;;14.19;89.70;101451.38;6221003;23;20075;-78
2022/10/16 08:51:02;;;;;;;2.88;2.10;;;;;;;14.22;88.60;101456.59;6219896;23;20084;-76
2022/10/16 08:53:38;;;;;;;3.03;1.83;;;;;;;14.26;88.78;101465.22;6221400;23;20467;-77
2022/10/16 08:56:05;;;;;;;7.70;2.25;;;;;;;14.33;88.04;101474.91;6220955;23;20112;-76
2022/10/16 08:58:31;;;;;;;11.00;2.10;;;;;;;14.23;88.29;101481.44;6221602;23;20017;-77
2022/10/16 09:01:01;;;;;;;5.30;2.47;;;;;;;14.35;88.46;101467.91;6220954;23;20057;-76
2022/10/16 09:03:36;;;;;;;5.80;1.95;;;;;;;14.61;88.33;101478.31;6221256;23;20071;-76
2022/10/16 09:06:02;;;;;;;2.28;1.85;;;;;;;14.65;87.04;101484.25;6220067;23;20013;-76
2022/10/16 09:08:55;;;;;;;5.78;2.13;;;;;;;14.63;87.47;101478.59;6220753;23;20048;-77
2022/10/16 09:11:46;;;;;;;5.20;1.98;;;;;;;14.84;87.15;101483.03;6220549;23;20075;-76
2022/10/16 09:14:36;;;;;;;4.47;1.90;;;;;;;14.88;86.56;101497.00;6220231;23;20049;-76
2022/10/16 09:17:29;;;;;;;4.13;2.17;;;;;;;14.99;86.45;101491.19;6193918;23;20020;-77
2022/10/16 09:20:19;;;;;;;5.82;1.83;;;;;;;15.13;85.96;101489.81;6219996;23;20405;-80
2022/10/16 09:22:46;;;;;;;8.85;2.20;;;;;;;15.27;84.79;101494.50;6174966;23;20859;-86
2022/10/16 09:25:16;;;;;;;3.50;2.03;;;;;;;15.19;84.67;101504.84;6220593;23;20017;-78
2022/10/16 09:27:47;;;;;;;9.60;1.90;;;;;;;15.24;84.67;101498.84;6220488;23;20013;-77
2022/10/16 09:30:17;;;;;;;12.40;2.47;;;;;;;15.31;85.10;101503.13;6219916;23;20041;-77
2022/10/16 09:32:47;;;;;;;6.10;1.95;;;;;;;15.46;84.81;101512.03;6220130;23;20228;-77
2022/10/16 09:35:17;;;;;;;6.82;2.10;;;;;;;15.54;83.63;101518.53;6219285;23;20021;-77
2022/10/16 09:37:46;;;;;;;6.97;2.13;;;;;;;15.51;83.49;101516.03;6220219;23;20080;-77
2022/10/16 09:40:30;;;;;;;6.03;2.00;;;;;;;15.55;82.99;101519.28;6191040;23;20024;-78
2022/10/16 09:43:14;;;;;;;8.70;1.60;;;;;;;15.62;83.89;101521.66;6218746;23;20021;-77
2022/10/16 09:45:41;;;;;;;4.80;1.60;;;;;;;15.58;81.57;101527.19;6193718;23;20091;-78
2022/10/16 09:48:12;;;;;;;6.20;2.22;;;;;;;15.46;81.73;101517.38;6219367;23;20055;-78
2022/10/16 09:50:39;;;;;;;7.03;1.95;;;;;;;15.45;82.47;101529.31;6219723;23;20096;-78
2022/10/16 09:53:11;;;;;;;7.00;1.70;;;;;;;15.37;82.85;101530.84;6219935;23;20041;-82
2022/10/16 09:55:51;;;;;;;7.82;2.33;;;;;;;15.33;82.63;101527.56;6220298;23;20088;-83
2022/10/16 09:58:17;;;;;;;7.80;2.10;;;;;;;15.54;82.60;101528.53;6220455;23;20529;-77
2022/10/16 10:00:53;;;;;;;7.78;1.75;;;;;;;15.70;82.61;101540.84;6193124;23;20517;-77
2022/10/16 10:03:39;;;;;;;6.63;1.80;;;;;;;15.70;81.69;101543.53;6219858;23;20151;-76
2022/10/16 10:06:17;;;;;;;5.75;1.95;;;;;;;15.65;80.65;101542.94;6192415;23;20028;-76
2022/10/16 10:08:53;;;;;;;6.80;2.47;;;;;;;15.63;80.77;101544.59;6219019;23;20013;-75
2022/10/16 10:11:38;;;;;;;8.75;2.05;;;;;;;15.68;80.61;101547.41;6219799;23;20047;-76
2022/10/16 10:14:16;;;;;;;7.78;2.10;;;;;;;15.93;78.98;101540.88;6220085;23;20037;-76
2022/10/16 10:16:43;;;;;;;7.72;2.03;;;;;;;16.12;78.37;101538.81;6193470;23;20028;-77
2022/10/16 10:19:23;;;;;;;5.10;2.10;;;;;;;16.19;78.92;101535.03;6192121;23;20876;-78
2022/10/16 10:21:56;;;;;;;7.28;1.80;;;;;;;16.16;79.72;101542.06;6194001;23;20013;-78
2022/10/16 10:24:22;;;;;;;7.95;2.25;;;;;;;16.18;79.79;101553.09;6219728;23;20017;-79
2022/10/16 10:27:12;;;;;;;7.22;2.70;;;;;;;16.23;77.61;101547.09;6220009;23;20021;-79
2022/10/16 10:29:45;;;;;;;8.07;1.95;;;;;;;16.30;79.00;101568.22;6219544;23;20101;-78
2022/10/16 10:33:10;;;;;;;6.70;2.30;;;;;;;16.37;78.43;101563.72;6219438;23;20120;-80
2022/10/16 10:35:42;;;;;;;7.20;1.80;;;;;;;16.38;77.00;101568.63;6056622;23;20022;-78
2022/10/16 10:38:14;;;;;;;9.32;2.30;;;;;;;16.50;77.55;101570.31;6068774;23;20446;-77
2022/10/16 10:40:56;;;;;;;8.07;2.25;;;;;;;16.57;76.33;101577.28;6069308;23;20107;-76
2022/10/16 10:43:38;;;;;;;7.03;2.00;;;;;;;16.50;74.76;101578.38;6069169;23;20087;-79
2022/10/16 10:46:14;;;;;;;10.43;2.22;;;;;;;16.39;75.95;101585.50;6068719;23;20450;-80
2022/10/16 10:49:07;;;;;;;8.20;1.70;;;;;;;16.32;76.34;101584.63;6044572;23;20023;-78
2022/10/16 10:51:46;;;;;;;14.80;2.40;;;;;;;16.37;75.92;101580.59;6069259;23;20061;-78
2022/10/16 10:54:36;;;;;;;6.25;2.10;;;;;;;16.30;75.25;101597.03;6045308;23;20023;-78
2022/10/16 10:57:10;;;;;;;5.32;2.00;;;;;;;16.23;75.33;101594.69;6069210;23;20476;-78
2022/10/16 11:00:09;;;;;;;5.68;2.10;;;;;;;16.14;75.16;101590.13;6045258;23;20023;-77
2022/10/16 11:02:48;;;;;;;65.55;40.67;;;;;;;16.05;74.95;101587.47;6068576;23;20090;-77
2022/10/16 11:05:38;;;;;;;8.10;3.08;;;;;;;16.09;74.30;101595.38;6069007;23;20023;-77
2022/10/16 11:08:18;;;;;;;14.07;2.40;;;;;;;16.11;72.51;101593.72;6068898;23;20476;-77
2022/10/16 11:11:05;;;;;;;4.43;1.80;;;;;;;15.99;72.98;101606.16;6086320;23;20052;-77
2022/10/16 11:14:08;;;;;;;12.07;2.25;;;;;;;15.90;74.41;101603.53;6190093;23;20101;-77
2022/10/16 11:16:48;;;;;;;6.93;2.05;;;;;;;15.83;75.46;101606.56;6189358;23;20455;-77
2022/10/16 11:19:26;;;;;;;8.85;2.55;;;;;;;15.79;74.98;101605.22;6189441;23;20018;-77
2022/10/16 11:22:02;;;;;;;5.82;1.73;;;;;;;15.74;74.04;101606.59;6189699;23;20455;-77
2022/10/16 11:24:48;;;;;;;8.25;2.00;;;;;;;15.77;76.00;101615.69;6189406;23;20892;-77
2022/10/16 11:27:26;;;;;;;8.18;2.33;;;;;;;15.77;74.95;101619.09;6189522;23;20042;-75
2022/10/16 11:29:59;;;;;;;9.02;2.10;;;;;;;15.85;74.72;101617.59;6189334;23;20021;-76
2022/10/16 11:32:42;;;;;;;5.85;2.47;;;;;;;16.03;74.28;101624.78;6189201;23;20108;-76
2022/10/16 11:35:18;;;;;;;16.13;2.25;;;;;;;16.14;74.04;101618.91;6189382;23;20474;-78
2022/10/16 11:37:48;;;;;;;7.85;2.03;;;;;;;16.30;74.96;101618.53;6189715;23;20080;-76
2022/10/16 11:40:40;;;;;;;6.20;1.60;;;;;;;16.43;74.50;101623.66;6189753;23;20017;-76